Rose Hill, Mississippi
Current Conditions -  °F | °C
As of 3:58 PM on Tuesday 21 Oct 2014 (Local Time) from KMEI Reporting Station
Clear Clear  
Wind Chill: 78°   Ceiling: Unl
Heat Index: 79°   Visibility: 10mi
Dew Point: 54°   Wind: 8mph
Humidity: 43%   Direction: 10°N
Pressure: 30"   Gusts: NA
Location:  32.14°N, 89°W
Report Text: KMEI 212058Z 01007KT 10SM CLR 26/12 A3000 RMK AO2 SLP158 T02560122 56016
Loading
Personal Weather Stations






























Interactive Weather Map
Tropical Storm Tracking
New forecast layout! Learn more

10-Day Weather Forecast

Advertisements
Track Severe Weather on mobile